Terminal Aerodrome Forecast
Issued by NWS

Home | Current Version | Previous Version | Text Only | Print | Product List | Glossary On
Versions: 1 2 3 4 5 6 7 8 9 10 11 12 13 14 15 16 17 18 19 20 21 22 23 24 25 26 27 28 29 30 31 32
567
FTUS45 KGJT 222339
TAFTEX
TAF
KTEX 222339Z 2300/2324 01004KT P6SM SCT080 BKN090
     FM230200 35009KT P6SM SCT150
     FM230500 02010G20KT P6SM SCT120
     FM231100 05007KT P6SM FEW150
     FM231700 02010G19KT P6SM FEW250
     FM232200 35013G21KT P6SM FEW250=

USA.gov is the U.S. government's official web portal to all federal, state and local government web resources and services.